Time;durP1;ratioP1;P1;durP2;ratioP2;P2;SDS_P1;SDS_P2;PMS_P1;PMS_P2;Temp;Humidity;BMP_temperature;BMP_pressure;BME280_temperature;BME280_humidity;BME280_pressure;Samples;Min_cycle;Max_cycle;Signal;HPM_P1;HPM_P2
2023/07/22 00:01:23;;;;;;;0.00;0.00;;;14.30;99.90;;;;;;5031521;28;21323;-69
2023/07/22 00:03:49;;;;;;;0.00;0.00;;;14.30;99.90;;;;;;5024721;28;20045;-70
2023/07/22 00:06:14;;;;;;;0.00;0.00;;;14.30;99.90;;;;;;5021729;28;20046;-70
2023/07/22 00:08:40;;;;;;;0.00;0.00;;;14.30;99.90;;;;;;5026398;28;20042;-70
2023/07/22 00:11:06;;;;;;;0.38;0.38;;;14.30;99.90;;;;;;5019229;28;20066;-70
2023/07/22 00:13:32;;;;;;;0.75;0.40;;;14.30;99.90;;;;;;5020043;28;20068;-69
2023/07/22 00:15:59;;;;;;;0.00;0.00;;;14.30;99.90;;;;;;5023616;28;20119;-70
2023/07/22 00:18:27;;;;;;;0.47;0.30;;;14.30;99.90;;;;;;5028836;28;20037;-70
2023/07/22 00:20:53;;;;;;;0.50;0.50;;;14.40;99.90;;;;;;5014766;28;20050;-69
2023/07/22 00:23:19;;;;;;;0.10;0.10;;;14.40;99.90;;;;;;5020520;28;20375;-69
2023/07/22 00:25:46;;;;;;;0.00;0.00;;;14.40;99.90;;;;;;5022905;28;20389;-69
2023/07/22 00:28:12;;;;;;;0.05;0.05;;;14.40;99.90;;;;;;5024579;28;20095;-70
2023/07/22 00:30:37;;;;;;;0.15;0.15;;;14.50;99.90;;;;;;5024711;28;20033;-70
2023/07/22 00:33:03;;;;;;;0.00;0.00;;;14.40;99.90;;;;;;5035988;28;20085;-69
2023/07/22 00:35:28;;;;;;;0.00;0.00;;;14.50;99.90;;;;;;5015873;28;20048;-69
2023/07/22 00:37:54;;;;;;;0.98;0.93;;;14.50;99.90;;;;;;5029944;28;20236;-69
2023/07/22 00:40:20;;;;;;;0.00;0.00;;;14.50;99.90;;;;;;5015345;28;20042;-69
2023/07/22 00:42:45;;;;;;;0.00;0.00;;;14.50;99.90;;;;;;5022102;28;20033;-70
2023/07/22 00:45:11;;;;;;;0.40;0.40;;;14.40;99.90;;;;;;5019030;28;20076;-69
2023/07/22 00:47:38;;;;;;;5.88;1.23;;;14.30;99.90;;;;;;5019087;28;20077;-69
2023/07/22 00:50:06;;;;;;;0.00;0.00;;;14.30;99.90;;;;;;5018558;28;20080;-69
2023/07/22 00:52:32;;;;;;;0.00;0.00;;;14.30;99.90;;;;;;5021504;28;20429;-69
2023/07/22 00:54:58;;;;;;;0.00;0.00;;;14.20;99.90;;;;;;5021327;28;20314;-70
2023/07/22 00:57:24;;;;;;;0.00;0.00;;;14.10;99.90;;;;;;5028654;28;20397;-69
2023/07/22 00:59:50;;;;;;;0.00;0.00;;;14.10;99.90;;;;;;5019491;28;20048;-70
2023/07/22 01:02:16;;;;;;;0.10;0.10;;;14.00;99.90;;;;;;5028057;28;20448;-69
2023/07/22 01:04:42;;;;;;;0.10;0.10;;;13.90;99.90;;;;;;5017047;28;20560;-70
2023/07/22 01:07:09;;;;;;;0.08;0.08;;;13.80;99.90;;;;;;5022477;28;20147;-70
2023/07/22 01:09:39;;;;;;;0.00;0.00;;;13.80;99.90;;;;;;5027923;28;20042;-70
2023/07/22 01:12:06;;;;;;;0.10;0.10;;;13.80;99.90;;;;;;5026228;28;20095;-69
2023/07/22 01:14:40;;;;;;;0.00;0.00;;;13.70;99.90;;;;;;5029325;28;20081;-70
2023/07/22 01:17:08;;;;;;;0.32;0.32;;;13.60;99.90;;;;;;5034111;28;20041;-69
2023/07/22 01:19:35;;;;;;;0.00;0.00;;;13.60;99.90;;;;;;5026029;28;20068;-70
2023/07/22 01:22:02;;;;;;;0.00;0.00;;;13.50;99.90;;;;;;5020000;28;20133;-70
2023/07/22 01:24:31;;;;;;;0.00;0.00;;;13.60;99.90;;;;;;5027538;28;20052;-70
2023/07/22 01:26:58;;;;;;;1.20;0.57;;;13.60;99.90;;;;;;5027988;28;20050;-69
2023/07/22 01:29:24;;;;;;;0.00;0.00;;;13.60;99.90;;;;;;5022438;28;20136;-70
2023/07/22 01:31:55;;;;;;;0.00;0.00;;;13.50;99.90;;;;;;5027358;28;20045;-69
2023/07/22 01:34:22;;;;;;;0.03;0.03;;;13.50;99.90;;;;;;5020603;28;20412;-70
2023/07/22 01:36:48;;;;;;;0.00;0.00;;;13.40;99.90;;;;;;5023331;28;20136;-70
2023/07/22 01:39:16;;;;;;;0.00;0.00;;;13.40;99.90;;;;;;5016536;28;20045;-69
2023/07/22 01:41:42;;;;;;;0.00;0.00;;;13.40;99.90;;;;;;5023298;28;20107;-70
2023/07/22 01:44:10;;;;;;;0.00;0.00;;;13.30;99.90;;;;;;5023454;28;20485;-69
2023/07/22 01:46:37;;;;;;;0.80;0.57;;;13.30;99.90;;;;;;5023864;28;20478;-69
2023/07/22 01:49:05;;;;;;;0.00;0.00;;;13.40;99.90;;;;;;5015681;28;20401;-70
2023/07/22 01:51:32;;;;;;;0.00;0.00;;;13.30;99.90;;;;;;5021527;28;20092;-70
2023/07/22 01:53:57;;;;;;;0.10;0.10;;;13.20;99.90;;;;;;5016538;28;20046;-69
2023/07/22 01:56:23;;;;;;;0.30;0.30;;;13.20;99.90;;;;;;5015999;28;20052;-70
2023/07/22 01:58:49;;;;;;;0.10;0.10;;;13.20;99.90;;;;;;5016830;28;20100;-69
2023/07/22 02:01:16;;;;;;;0.00;0.00;;;13.10;99.90;;;;;;5025754;28;20046;-70
2023/07/22 02:03:42;;;;;;;0.10;0.10;;;13.10;99.90;;;;;;5018298;28;20052;-69
2023/07/22 02:06:08;;;;;;;0.40;0.40;;;13.10;99.90;;;;;;5020094;28;20099;-70
2023/07/22 02:08:33;;;;;;;0.00;0.00;;;13.10;99.90;;;;;;5024787;28;20042;-70
2023/07/22 02:11:05;;;;;;;0.10;0.10;;;13.10;99.90;;;;;;5023439;28;20065;-70
2023/07/22 02:13:31;;;;;;;0.00;0.00;;;13.10;99.90;;;;;;5013712;28;20048;-70
2023/07/22 02:15:57;;;;;;;0.52;0.08;;;13.10;99.90;;;;;;5021812;28;20409;-69
2023/07/22 02:18:23;;;;;;;0.10;0.10;;;13.00;99.90;;;;;;5024963;28;20049;-69
2023/07/22 02:20:48;;;;;;;0.08;0.08;;;13.00;99.90;;;;;;5023141;28;20491;-70
2023/07/22 02:23:14;;;;;;;0.00;0.00;;;13.00;99.90;;;;;;5022061;28;20501;-69
2023/07/22 02:25:40;;;;;;;0.00;0.00;;;13.00;99.90;;;;;;5028369;28;20044;-69
2023/07/22 02:28:06;;;;;;;0.00;0.00;;;12.90;99.90;;;;;;5023263;28;20160;-69
2023/07/22 02:30:34;;;;;;;0.00;0.00;;;12.80;99.90;;;;;;5019975;28;20030;-70
2023/07/22 02:33:01;;;;;;;0.03;0.03;;;12.80;99.90;;;;;;5029011;28;20091;-69
2023/07/22 02:35:27;;;;;;;0.22;0.22;;;12.90;99.90;;;;;;5028863;28;20042;-69
2023/07/22 02:37:53;;;;;;;0.00;0.00;;;12.90;99.90;;;;;;5023452;28;20049;-69
2023/07/22 02:40:18;;;;;;;0.00;0.00;;;12.80;99.90;;;;;;5025397;28;20045;-69
2023/07/22 02:42:44;;;;;;;0.00;0.00;;;12.80;99.90;;;;;;5027364;28;20042;-69
2023/07/22 02:45:10;;;;;;;0.00;0.00;;;12.80;99.90;;;;;;5027941;28;20088;-69
2023/07/22 02:47:36;;;;;;;0.00;0.00;;;12.80;99.90;;;;;;5015015;28;20049;-69
2023/07/22 02:50:03;;;;;;;0.05;0.05;;;12.80;99.90;;;;;;5021440;28;20045;-69
2023/07/22 02:52:28;;;;;;;0.60;0.45;;;12.80;99.90;;;;;;5017945;28;20054;-70
2023/07/22 02:55:12;;;;;;;0.10;0.10;;;12.70;99.90;;;;;;5026830;28;20098;-69
2023/07/22 02:57:38;;;;;;;0.10;0.10;;;12.80;99.90;;;;;;5011619;28;20064;-69
2023/07/22 03:00:08;;;;;;;0.65;0.35;;;12.70;99.90;;;;;;5031583;28;20114;-69
2023/07/22 03:02:37;;;;;;;0.10;0.10;;;12.80;99.90;;;;;;5021093;28;20052;-69
2023/07/22 03:05:07;;;;;;;0.10;0.10;;;12.80;99.90;;;;;;5025964;28;20124;-69
2023/07/22 03:07:39;;;;;;;0.05;0.05;;;12.80;99.90;;;;;;5023652;28;20042;-69
2023/07/22 03:10:06;;;;;;;0.00;0.00;;;12.90;99.90;;;;;;5024768;28;20448;-69
2023/07/22 03:12:32;;;;;;;0.10;0.10;;;12.90;99.90;;;;;;5028303;28;20048;-69
2023/07/22 03:14:57;;;;;;;0.00;0.00;;;12.90;99.90;;;;;;5026758;28;20042;-69
2023/07/22 03:17:23;;;;;;;0.25;0.25;;;13.00;99.90;;;;;;5026023;28;20459;-69
2023/07/22 03:19:49;;;;;;;0.00;0.00;;;13.00;99.90;;;;;;5024382;28;20044;-70
2023/07/22 03:22:21;;;;;;;0.00;0.00;;;13.00;99.90;;;;;;5019989;28;20038;-69
2023/07/22 03:24:47;;;;;;;0.10;0.10;;;13.10;99.90;;;;;;5027584;28;20041;-70
2023/07/22 03:27:14;;;;;;;0.22;0.22;;;13.10;99.90;;;;;;5026051;28;20478;-69
2023/07/22 03:29:41;;;;;;;0.10;0.10;;;13.10;99.90;;;;;;5024015;28;20088;-69
2023/07/22 03:32:07;;;;;;;0.10;0.10;;;13.10;99.90;;;;;;5025778;28;20057;-69
2023/07/22 03:34:33;;;;;;;0.52;0.40;;;13.20;99.90;;;;;;5019151;28;20502;-69
2023/07/22 03:36:59;;;;;;;0.30;0.30;;;13.20;99.90;;;;;;5016679;28;20069;-69
2023/07/22 03:39:24;;;;;;;0.00;0.00;;;13.30;99.90;;;;;;5020865;28;20141;-69
2023/07/22 03:41:50;;;;;;;5.18;0.52;;;13.30;99.90;;;;;;5016265;28;20045;-69
2023/07/22 03:44:16;;;;;;;0.10;0.10;;;13.40;99.90;;;;;;5023316;28;20057;-69
2023/07/22 03:46:41;;;;;;;0.10;0.10;;;13.40;99.90;;;;;;5020719;28;20042;-69
2023/07/22 03:49:07;;;;;;;0.03;0.03;;;13.40;99.90;;;;;;5033412;28;20050;-69
2023/07/22 03:51:33;;;;;;;0.00;0.00;;;13.40;99.90;;;;;;5022371;28;20498;-70
2023/07/22 03:53:59;;;;;;;0.52;0.52;;;13.50;99.90;;;;;;5013417;28;20480;-69
2023/07/22 03:56:25;;;;;;;0.08;0.08;;;13.50;99.90;;;;;;5024710;28;20444;-69
2023/07/22 03:58:51;;;;;;;0.80;0.43;;;13.50;99.90;;;;;;5025724;28;20053;-69
2023/07/22 04:01:17;;;;;;;0.00;0.00;;;13.50;99.90;;;;;;5032071;28;20381;-69
2023/07/22 04:03:42;;;;;;;0.00;0.00;;;13.50;99.90;;;;;;5028100;28;20037;-69
2023/07/22 04:06:08;;;;;;;0.40;0.40;;;13.50;99.90;;;;;;5031504;28;20042;-69
2023/07/22 04:08:34;;;;;;;1.42;0.57;;;13.50;99.90;;;;;;5019755;28;20074;-69
2023/07/22 04:10:59;;;;;;;0.00;0.00;;;13.50;99.90;;;;;;5021493;28;20037;-70
2023/07/22 04:13:26;;;;;;;0.00;0.00;;;13.50;99.90;;;;;;5019393;28;20069;-69
2023/07/22 04:15:52;;;;;;;0.80;0.40;;;13.40;99.90;;;;;;5030861;28;20116;-69
2023/07/22 04:18:18;;;;;;;1.95;0.30;;;13.50;99.90;;;;;;5029038;28;20129;-69
2023/07/22 04:20:44;;;;;;;0.00;0.00;;;13.40;99.90;;;;;;5019159;28;20034;-69
2023/07/22 04:23:10;;;;;;;0.17;0.17;;;13.50;99.90;;;;;;5027193;28;20543;-69
2023/07/22 04:25:40;;;;;;;0.20;0.20;;;13.50;99.90;;;;;;5024779;28;20040;-69
2023/07/22 04:28:07;;;;;;;0.38;0.38;;;13.50;99.90;;;;;;5025924;28;20042;-69
2023/07/22 04:30:32;;;;;;;0.50;0.50;;;13.60;99.90;;;;;;5028295;28;20133;-70
2023/07/22 04:32:58;;;;;;;0.05;0.05;;;13.60;99.90;;;;;;5031028;28;20140;-69
2023/07/22 04:35:23;;;;;;;0.10;0.10;;;13.70;99.90;;;;;;5020972;28;20042;-69
2023/07/22 04:37:49;;;;;;;0.55;0.45;;;13.70;99.90;;;;;;5015446;28;20053;-69
2023/07/22 04:40:16;;;;;;;0.15;0.15;;;13.80;99.90;;;;;;5014645;28;20489;-69
2023/07/22 04:42:42;;;;;;;0.03;0.03;;;13.80;99.90;;;;;;5023733;28;20041;-69
2023/07/22 04:45:12;;;;;;;0.22;0.22;;;13.90;99.90;;;;;;5024112;28;20049;-69
2023/07/22 04:47:38;;;;;;;0.43;0.43;;;13.90;99.90;;;;;;5026065;28;20050;-69
2023/07/22 04:50:09;;;;;;;2.72;0.65;;;13.90;99.90;;;;;;5020565;28;20045;-69
2023/07/22 04:52:35;;;;;;;0.13;0.13;;;14.00;99.90;;;;;;5026081;28;20121;-69
2023/07/22 04:55:04;;;;;;;0.17;0.17;;;13.90;99.90;;;;;;5026357;28;20455;-70
2023/07/22 04:57:30;;;;;;;0.10;0.10;;;13.90;99.90;;;;;;5022990;28;20469;-69
2023/07/22 04:59:56;;;;;;;0.00;0.00;;;14.10;99.90;;;;;;5023651;28;20061;-69
2023/07/22 05:02:21;;;;;;;0.05;0.05;;;14.10;99.90;;;;;;5025722;28;20034;-69
2023/07/22 05:04:47;;;;;;;0.10;0.10;;;14.10;99.90;;;;;;5028558;28;20103;-69
2023/07/22 05:07:12;;;;;;;0.20;0.20;;;14.20;99.90;;;;;;5027320;28;20091;-69
2023/07/22 05:09:38;;;;;;;0.00;0.00;;;14.20;99.90;;;;;;5035893;28;20033;-69
2023/07/22 05:12:04;;;;;;;0.00;0.00;;;14.20;99.90;;;;;;5024655;28;20064;-69
2023/07/22 05:14:29;;;;;;;0.00;0.00;;;14.20;99.90;;;;;;5028330;28;20049;-69
2023/07/22 05:16:55;;;;;;;0.00;0.00;;;14.30;99.90;;;;;;5027817;28;20437;-70
2023/07/22 05:19:20;;;;;;;0.70;0.68;;;14.30;99.90;;;;;;5020093;28;20042;-70
2023/07/22 05:21:46;;;;;;;0.43;0.40;;;14.30;99.90;;;;;;5027614;28;20034;-69
2023/07/22 05:24:12;;;;;;;0.68;0.68;;;14.30;99.90;;;;;;5017795;28;20049;-69
2023/07/22 05:26:38;;;;;;;0.52;0.52;;;14.40;99.90;;;;;;5025768;28;20049;-70
2023/07/22 05:29:03;;;;;;;0.00;0.00;;;14.50;99.90;;;;;;5026414;28;20068;-69
2023/07/22 05:31:29;;;;;;;0.00;0.00;;;14.50;99.90;;;;;;5029900;28;20164;-69
2023/07/22 05:33:55;;;;;;;0.10;0.10;;;14.60;99.90;;;;;;5026404;28;20120;-69
2023/07/22 05:36:21;;;;;;;0.20;0.20;;;14.60;99.90;;;;;;5027673;28;20033;-69
2023/07/22 05:38:46;;;;;;;0.40;0.40;;;14.60;99.90;;;;;;5025517;28;20060;-69
2023/07/22 05:41:12;;;;;;;0.00;0.00;;;14.60;99.90;;;;;;5023529;28;20053;-69
2023/07/22 05:43:38;;;;;;;0.10;0.10;;;14.70;99.90;;;;;;5021748;28;20065;-69
2023/07/22 05:46:03;;;;;;;0.20;0.20;;;14.70;99.90;;;;;;5023477;28;20561;-70
2023/07/22 05:48:29;;;;;;;0.10;0.10;;;14.80;99.90;;;;;;5017429;28;20129;-70
2023/07/22 05:50:55;;;;;;;0.00;0.00;;;14.80;99.90;;;;;;5022431;28;20038;-70
2023/07/22 05:53:20;;;;;;;0.10;0.10;;;14.90;99.90;;;;;;5023558;28;20049;-69
2023/07/22 05:55:46;;;;;;;0.00;0.00;;;14.90;99.90;;;;;;5021320;28;20037;-70
2023/07/22 05:58:18;;;;;;;0.00;0.00;;;15.00;99.90;;;;;;5020579;28;20053;-70
2023/07/22 06:00:44;;;;;;;0.50;0.47;;;15.00;99.90;;;;;;5022357;28;20742;-69
2023/07/22 06:03:10;;;;;;;0.00;0.00;;;15.10;99.90;;;;;;5024287;28;20050;-69
2023/07/22 06:05:35;;;;;;;0.00;0.00;;;15.10;99.90;;;;;;5027393;28;20478;-69
2023/07/22 06:08:01;;;;;;;0.63;0.50;;;15.30;99.90;;;;;;5019269;28;20038;-70
2023/07/22 06:10:27;;;;;;;0.00;0.00;;;15.30;99.90;;;;;;5024769;28;20485;-69
2023/07/22 06:12:52;;;;;;;0.10;0.10;;;15.30;99.90;;;;;;5026426;28;20041;-69
2023/07/22 06:15:18;;;;;;;0.25;0.25;;;15.40;99.90;;;;;;5023416;28;20073;-69
2023/07/22 06:17:44;;;;;;;0.15;0.15;;;15.40;99.90;;;;;;5021224;28;20080;-70
2023/07/22 06:20:10;;;;;;;0.45;0.30;;;15.40;99.90;;;;;;5021639;28;20124;-70
2023/07/22 06:22:35;;;;;;;0.82;0.82;;;15.50;99.90;;;;;;5025019;28;20112;-69
2023/07/22 06:25:01;;;;;;;0.20;0.20;;;15.50;99.90;;;;;;5027344;28;20512;-70
2023/07/22 06:27:27;;;;;;;0.40;0.40;;;15.60;99.90;;;;;;5022784;28;20393;-69
2023/07/22 06:29:52;;;;;;;0.15;0.15;;;15.60;99.90;;;;;;5023276;28;20033;-69
2023/07/22 06:32:18;;;;;;;0.98;0.73;;;15.60;99.90;;;;;;5021457;28;20081;-69
2023/07/22 06:34:44;;;;;;;0.22;0.22;;;15.60;99.90;;;;;;5028545;28;20122;-69
2023/07/22 06:37:09;;;;;;;0.00;0.00;;;15.60;99.90;;;;;;5026914;28;20044;-69
2023/07/22 06:39:35;;;;;;;0.00;0.00;;;15.70;99.90;;;;;;5019709;28;20601;-70
2023/07/22 06:42:00;;;;;;;0.00;0.00;;;15.70;99.90;;;;;;5025737;28;20037;-70
2023/07/22 06:44:26;;;;;;;0.30;0.30;;;15.70;99.90;;;;;;5028503;28;20061;-69
2023/07/22 06:46:51;;;;;;;0.20;0.20;;;15.80;99.90;;;;;;5023399;28;20384;-69
2023/07/22 06:49:17;;;;;;;0.22;0.22;;;15.80;99.90;;;;;;5016060;28;20081;-69
2023/07/22 06:51:42;;;;;;;0.75;0.30;;;15.80;99.90;;;;;;5018883;28;20042;-69
2023/07/22 06:54:08;;;;;;;0.20;0.20;;;15.80;99.90;;;;;;5025837;28;20041;-70
2023/07/22 06:56:34;;;;;;;0.35;0.35;;;15.90;99.90;;;;;;5025471;28;20544;-70
2023/07/22 06:58:59;;;;;;;0.80;0.80;;;16.00;99.90;;;;;;5018340;28;20490;-70
2023/07/22 07:01:25;;;;;;;0.40;0.32;;;16.00;99.90;;;;;;5025241;28;20084;-70
2023/07/22 07:03:51;;;;;;;0.17;0.17;;;16.10;99.90;;;;;;5019646;28;20981;-68
2023/07/22 07:06:16;;;;;;;0.30;0.30;;;16.10;99.90;;;;;;5026728;28;20073;-69
2023/07/22 07:08:42;;;;;;;0.30;0.30;;;16.10;99.90;;;;;;5020791;28;20175;-69
2023/07/22 07:11:07;;;;;;;0.45;0.45;;;16.20;99.90;;;;;;5024880;28;20050;-69
2023/07/22 07:13:33;;;;;;;5.88;0.55;;;16.20;99.90;;;;;;5013375;28;20132;-69
2023/07/22 07:16:20;;;;;;;0.10;0.10;;;16.10;99.90;;;;;;5028678;28;20045;-70
2023/07/22 07:18:45;;;;;;;0.10;0.10;;;16.10;99.90;;;;;;5021379;28;20042;-69
2023/07/22 07:21:11;;;;;;;1.20;1.10;;;16.10;99.90;;;;;;5022864;28;20044;-69
2023/07/22 07:23:36;;;;;;;0.40;0.40;;;16.10;99.90;;;;;;5020071;28;20037;-70
2023/07/22 07:26:02;;;;;;;0.20;0.20;;;16.20;99.90;;;;;;5028827;28;20072;-70
2023/07/22 07:28:27;;;;;;;0.10;0.10;;;16.20;99.90;;;;;;5014501;28;20057;-70
2023/07/22 07:30:53;;;;;;;1.75;0.65;;;16.20;99.90;;;;;;5016501;28;20197;-70
2023/07/22 07:33:19;;;;;;;1.35;0.52;;;16.20;99.90;;;;;;5029024;28;20444;-70
2023/07/22 07:35:47;;;;;;;0.00;0.00;;;16.30;99.90;;;;;;5028984;28;20083;-70
2023/07/22 07:38:13;;;;;;;0.10;0.10;;;16.40;99.90;;;;;;5031713;28;20045;-69
2023/07/22 07:40:39;;;;;;;0.20;0.20;;;16.50;99.90;;;;;;5023461;28;20113;-69
2023/07/22 07:43:04;;;;;;;9.63;1.65;;;16.60;99.90;;;;;;5028177;28;20054;-70
2023/07/22 07:45:30;;;;;;;0.00;0.00;;;16.70;99.90;;;;;;5026959;28;20153;-69
2023/07/22 07:47:55;;;;;;;1.55;0.88;;;16.80;99.90;;;;;;5022086;28;20527;-69
2023/07/22 07:50:21;;;;;;;0.00;0.00;;;16.80;99.90;;;;;;5024635;28;20080;-70
2023/07/22 07:52:47;;;;;;;1.13;0.93;;;16.90;99.90;;;;;;5022470;28;20037;-70
2023/07/22 07:55:12;;;;;;;0.13;0.13;;;16.90;99.90;;;;;;5021563;28;20117;-69
2023/07/22 07:57:38;;;;;;;0.30;0.30;;;17.00;99.90;;;;;;5022133;28;20696;-69
2023/07/22 08:00:08;;;;;;;0.00;0.00;;;17.00;99.90;;;;;;5022679;28;20085;-70
2023/07/22 08:02:33;;;;;;;0.10;0.10;;;17.00;99.90;;;;;;5027373;28;20069;-70
2023/07/22 08:04:59;;;;;;;0.22;0.22;;;16.90;99.90;;;;;;5023118;28;20178;-70
2023/07/22 08:07:24;;;;;;;0.15;0.15;;;16.80;99.90;;;;;;5016788;28;20064;-69
2023/07/22 08:09:50;;;;;;;0.00;0.00;;;16.90;99.90;;;;;;5025650;28;20038;-69
2023/07/22 08:12:17;;;;;;;1.05;0.45;;;16.80;99.90;;;;;;5020340;28;20475;-70
2023/07/22 08:14:42;;;;;;;0.43;0.43;;;16.80;99.90;;;;;;5029536;28;20049;-70
2023/07/22 08:17:08;;;;;;;0.50;0.50;;;16.80;99.90;;;;;;5026954;28;20050;-69
2023/07/22 08:19:33;;;;;;;0.47;0.47;;;16.80;99.90;;;;;;5022379;28;20738;-69
2023/07/22 08:21:59;;;;;;;0.10;0.10;;;16.80;99.90;;;;;;5025616;28;20045;-70
2023/07/22 08:24:24;;;;;;;0.00;0.00;;;16.80;99.90;;;;;;5024751;28;20050;-69
2023/07/22 08:26:50;;;;;;;0.00;0.00;;;16.70;99.90;;;;;;5029396;28;20040;-70
2023/07/22 08:29:16;;;;;;;0.00;0.00;;;16.60;99.90;;;;;;5028680;28;20042;-70
2023/07/22 08:31:41;;;;;;;0.20;0.20;;;16.50;99.90;;;;;;5019008;28;20060;-69
2023/07/22 08:34:07;;;;;;;0.15;0.15;;;16.50;99.90;;;;;;5026810;28;20139;-69
2023/07/22 08:36:32;;;;;;;0.17;0.17;;;16.40;99.90;;;;;;5016989;28;20398;-70
2023/07/22 08:38:58;;;;;;;0.00;0.00;;;16.40;99.90;;;;;;5022187;28;20191;-69
2023/07/22 08:41:25;;;;;;;0.00;0.00;;;16.40;99.90;;;;;;5021771;28;20041;-69
2023/07/22 08:43:51;;;;;;;0.30;0.30;;;16.40;99.90;;;;;;5024365;28;20128;-69
2023/07/22 08:46:20;;;;;;;0.00;0.00;;;16.40;99.90;;;;;;5026677;28;20116;-69
2023/07/22 08:48:48;;;;;;;0.00;0.00;;;16.40;99.90;;;;;;5022085;28;20442;-70
2023/07/22 08:51:18;;;;;;;4.60;0.80;;;16.50;99.90;;;;;;5014374;28;20104;-69
2023/07/22 08:53:45;;;;;;;0.00;0.00;;;16.50;99.90;;;;;;5026933;28;20055;-70
2023/07/22 08:56:11;;;;;;;0.00;0.00;;;16.60;99.90;;;;;;5015225;28;20046;-70
2023/07/22 08:58:38;;;;;;;0.10;0.10;;;16.60;99.90;;;;;;5022983;28;20045;-70
2023/07/22 09:01:05;;;;;;;0.20;0.20;;;16.60;99.90;;;;;;5029480;28;20610;-70
2023/07/22 09:03:32;;;;;;;0.00;0.00;;;16.60;99.90;;;;;;5018746;28;20128;-70
2023/07/22 09:05:58;;;;;;;0.00;0.00;;;16.50;99.90;;;;;;5020375;28;20045;-69
2023/07/22 09:08:24;;;;;;;0.65;0.25;;;16.50;99.90;;;;;;5023574;28;20069;-70
2023/07/22 09:10:50;;;;;;;0.38;0.38;;;16.40;99.90;;;;;;5026326;28;20457;-70
2023/07/22 09:13:18;;;;;;;0.70;0.20;;;16.20;99.90;;;;;;5015078;28;20112;-70
2023/07/22 09:15:45;;;;;;;0.10;0.10;;;16.10;99.90;;;;;;5018364;28;20044;-69
2023/07/22 09:18:11;;;;;;;0.00;0.00;;;16.10;99.90;;;;;;5015105;28;20048;-70
2023/07/22 09:20:37;;;;;;;0.00;0.00;;;16.00;99.90;;;;;;5026876;28;20416;-70
2023/07/22 09:23:02;;;;;;;0.00;0.00;;;16.00;99.90;;;;;;5021070;28;20046;-70
2023/07/22 09:25:29;;;;;;;0.17;0.17;;;16.00;99.90;;;;;;5027479;28;20038;-69
2023/07/22 09:27:57;;;;;;;0.00;0.00;;;16.00;99.90;;;;;;5024500;28;20099;-70
2023/07/22 09:30:30;;;;;;;0.00;0.00;;;16.10;99.90;;;;;;5014572;28;20042;-70
2023/07/22 09:33:00;;;;;;;0.73;0.30;;;16.20;99.90;;;;;;5020027;28;20056;-70
2023/07/22 09:35:45;;;;;;;0.20;0.20;;;16.20;99.90;;;;;;5021316;28;20044;-70
2023/07/22 09:38:11;;;;;;;0.00;0.00;;;16.20;99.90;;;;;;5022218;28;20042;-70
2023/07/22 09:40:40;;;;;;;0.00;0.00;;;16.20;99.90;;;;;;5020767;28;20058;-70
2023/07/22 09:43:08;;;;;;;0.05;0.05;;;16.20;99.90;;;;;;5028009;28;20397;-70
2023/07/22 09:45:35;;;;;;;0.10;0.10;;;16.30;99.90;;;;;;5024614;28;20045;-70
2023/07/22 09:48:00;;;;;;;0.00;0.00;;;16.30;99.90;;;;;;5018171;28;20738;-70
2023/07/22 09:50:27;;;;;;;0.00;0.00;;;16.40;99.90;;;;;;5023396;28;20075;-70
2023/07/22 09:52:55;;;;;;;0.00;0.00;;;16.30;99.90;;;;;;5022012;28;20322;-70
2023/07/22 09:55:28;;;;;;;0.43;0.43;;;16.40;99.90;;;;;;5030101;28;20051;-70
2023/07/22 09:58:03;;;;;;;0.00;0.00;;;16.40;99.90;;;;;;5026978;28;20037;-70
2023/07/22 10:00:31;;;;;;;0.00;0.00;;;16.50;99.90;;;;;;5035141;28;20497;-70
2023/07/22 10:02:58;;;;;;;0.20;0.20;;;16.50;99.90;;;;;;5019271;28;20048;-70
2023/07/22 10:05:25;;;;;;;0.00;0.00;;;16.50;99.90;;;;;;5021323;28;20060;-70
2023/07/22 10:07:53;;;;;;;0.20;0.17;;;16.60;99.90;;;;;;5018989;28;20397;-71
2023/07/22 10:10:30;;;;;;;0.10;0.10;;;16.60;99.90;;;;;;5018714;28;20034;-71
2023/07/22 10:12:57;;;;;;;0.08;0.08;;;16.60;99.90;;;;;;5017640;28;20045;-70
2023/07/22 10:15:25;;;;;;;0.00;0.00;;;16.60;99.90;;;;;;5023547;28;20029;-70
2023/07/22 10:17:51;;;;;;;2.55;0.93;;;16.50;99.90;;;;;;5023119;28;20054;-69
2023/07/22 10:20:19;;;;;;;0.10;0.10;;;16.50;99.90;;;;;;5027944;28;20072;-69
2023/07/22 10:22:47;;;;;;;0.10;0.10;;;16.40;99.90;;;;;;5029441;28;20033;-69
2023/07/22 10:25:15;;;;;;;0.00;0.00;;;16.40;99.90;;;;;;5021535;28;20104;-69
2023/07/22 10:27:42;;;;;;;0.00;0.00;;;16.40;99.90;;;;;;5015289;28;20052;-69
2023/07/22 10:30:18;;;;;;;0.80;0.30;;;16.40;99.90;;;;;;5027042;28;20046;-69
2023/07/22 10:32:49;;;;;;;0.08;0.08;;;16.40;99.90;;;;;;5024668;28;20192;-69
2023/07/22 10:35:30;;;;;;;0.00;0.00;;;16.40;99.90;;;;;;5022160;28;20042;-69
2023/07/22 10:38:08;;;;;;;0.17;0.17;;;16.30;99.90;;;;;;5022179;28;20052;-69
2023/07/22 10:40:49;;;;;;;0.10;0.10;;;16.40;99.90;;;;;;5026608;28;20056;-69
2023/07/22 10:43:17;;;;;;;0.10;0.10;;;16.30;99.90;;;;;;5015352;28;20038;-69
2023/07/22 10:45:49;;;;;;;0.00;0.00;;;16.40;99.90;;;;;;5026127;28;20057;-69
2023/07/22 10:48:15;;;;;;;0.00;0.00;;;16.40;99.90;;;;;;5023077;28;20046;-69
2023/07/22 10:50:49;;;;;;;0.00;0.00;;;16.40;99.90;;;;;;5016033;28;20052;-69
2023/07/22 10:53:20;;;;;;;0.00;0.00;;;16.40;99.90;;;;;;5016038;28;20649;-69
2023/07/22 10:56:21;;;;;;;0.00;0.00;;;16.40;99.90;;;;;;5021759;28;20052;-69
2023/07/22 10:58:47;;;;;;;0.00;0.00;;;16.40;99.90;;;;;;5025127;28;20080;-69
2023/07/22 11:01:27;;;;;;;0.00;0.00;;;16.30;99.90;;;;;;5030623;28;20072;-69
2023/07/22 11:04:12;;;;;;;0.35;0.30;;;16.40;99.90;;;;;;5022515;28;20034;-69
2023/07/22 11:06:59;;;;;;;1.23;0.50;;;16.30;99.90;;;;;;5024514;28;20054;-69
2023/07/22 11:09:28;;;;;;;0.00;0.00;;;16.30;99.90;;;;;;5030987;28;20132;-69
2023/07/22 11:12:22;;;;;;;0.00;0.00;;;16.30;99.90;;;;;;5021358;28;20099;-69
2023/07/22 11:15:12;;;;;;;0.10;0.10;;;16.10;99.90;;;;;;5025760;28;20061;-69
2023/07/22 11:17:37;;;;;;;0.22;0.22;;;16.10;99.90;;;;;;5032212;28;20116;-69
2023/07/22 11:20:04;;;;;;;0.10;0.10;;;16.10;99.90;;;;;;5019649;28;20076;-69
2023/07/22 11:22:30;;;;;;;0.10;0.10;;;16.10;99.90;;;;;;5032023;28;20193;-69
2023/07/22 11:24:58;;;;;;;0.03;0.03;;;16.10;99.90;;;;;;5022821;28;20065;-69
2023/07/22 11:27:24;;;;;;;0.35;0.35;;;16.10;99.90;;;;;;5027662;28;20056;-69
2023/07/22 11:29:49;;;;;;;0.35;0.35;;;16.00;99.90;;;;;;5032208;28;20037;-69
2023/07/22 11:32:22;;;;;;;0.25;0.25;;;16.00;99.90;;;;;;5028917;28;20045;-69
2023/07/22 11:34:51;;;;;;;0.00;0.00;;;16.10;99.90;;;;;;5022335;28;20045;-69
2023/07/22 11:37:18;;;;;;;0.15;0.15;;;16.00;99.90;;;;;;5019011;28;20046;-69
2023/07/22 11:39:44;;;;;;;0.40;0.40;;;16.00;99.90;;;;;;5027773;28;20054;-69
2023/07/22 11:42:11;;;;;;;0.00;0.00;;;16.10;99.90;;;;;;5026798;28;20045;-69
2023/07/22 11:44:37;;;;;;;0.60;0.22;;;16.10;99.90;;;;;;5025457;28;20041;-69
2023/07/22 11:47:05;;;;;;;0.10;0.10;;;16.20;99.90;;;;;;5022429;28;20041;-69
2023/07/22 11:49:35;;;;;;;0.10;0.10;;;16.30;99.90;;;;;;5022870;28;20053;-69
2023/07/22 11:52:15;;;;;;;0.00;0.00;;;16.40;99.90;;;;;;5021466;28;20037;-69
2023/07/22 11:54:41;;;;;;;0.03;0.03;;;16.40;99.90;;;;;;5024648;28;20121;-69
2023/07/22 11:57:13;;;;;;;0.57;0.47;;;16.40;99.90;;;;;;5023711;28;20045;-69
2023/07/22 11:59:43;;;;;;;0.00;0.00;;;16.50;99.90;;;;;;5029289;28;20067;-69
2023/07/22 12:02:14;;;;;;;0.35;0.22;;;16.60;99.90;;;;;;5023767;28;20140;-69
2023/07/22 12:04:39;;;;;;;1.08;0.47;;;16.80;99.90;;;;;;5022692;28;20042;-69
2023/07/22 12:07:05;;;;;;;0.10;0.10;;;16.90;99.90;;;;;;5023406;28;20060;-69
2023/07/22 12:09:31;;;;;;;0.20;0.20;;;17.10;99.90;;;;;;5024389;28;20113;-69
2023/07/22 12:11:58;;;;;;;0.00;0.00;;;17.30;99.90;;;;;;5028086;28;20440;-69
2023/07/22 12:14:24;;;;;;;0.00;0.00;;;17.40;99.90;;;;;;5038430;28;20037;-69
2023/07/22 12:16:56;;;;;;;0.10;0.10;;;17.60;99.90;;;;;;5026685;28;20339;-69
2023/07/22 12:19:22;;;;;;;0.00;0.00;;;17.80;99.90;;;;;;5026483;28;20519;-69
2023/07/22 12:21:48;;;;;;;0.20;0.20;;;18.00;99.90;;;;;;5021404;28;20231;-70
2023/07/22 12:24:14;;;;;;;0.00;0.00;;;18.00;99.90;;;;;;5032276;28;20041;-70
2023/07/22 12:26:40;;;;;;;0.00;0.00;;;18.20;99.90;;;;;;5028423;28;20026;-70
2023/07/22 12:29:07;;;;;;;0.10;0.10;;;18.10;99.90;;;;;;5026686;28;20050;-70
2023/07/22 12:31:33;;;;;;;0.20;0.20;;;17.80;99.90;;;;;;5021353;28;20120;-70
2023/07/22 12:33:59;;;;;;;1.88;0.35;;;17.80;99.90;;;;;;5030037;28;20473;-70
2023/07/22 12:36:25;;;;;;;0.13;0.13;;;17.60;99.90;;;;;;5020915;28;20045;-70
2023/07/22 12:38:51;;;;;;;0.10;0.10;;;17.60;99.90;;;;;;5025135;28;20046;-69
2023/07/22 12:41:16;;;;;;;0.00;0.00;;;17.50;99.90;;;;;;5021193;28;20049;-69
2023/07/22 12:43:42;;;;;;;0.03;0.03;;;17.50;99.90;;;;;;5022960;28;20113;-69
2023/07/22 12:46:08;;;;;;;2.17;1.90;;;17.50;99.90;;;;;;5024266;28;20555;-69
2023/07/22 12:48:33;;;;;;;0.00;0.00;;;17.50;99.90;;;;;;5030394;28;20428;-69